sensor_id;sensor_type;location;lat;lon;timestamp;P1;durP1;ratioP1;P2;durP2;ratioP2
26656;SDS011;14279;50.010;8.260;2024-01-15T00:01:49;27.80;;;14.93;;
26656;SDS011;14279;50.010;8.260;2024-01-15T00:04:14;26.70;;;14.20;;
26656;SDS011;14279;50.010;8.260;2024-01-15T00:06:40;31.60;;;15.03;;
26656;SDS011;14279;50.010;8.260;2024-01-15T00:09:05;29.60;;;15.30;;
26656;SDS011;14279;50.010;8.260;2024-01-15T00:11:31;26.20;;;15.17;;
26656;SDS011;14279;50.010;8.260;2024-01-15T00:13:57;28.53;;;16.13;;
26656;SDS011;14279;50.010;8.260;2024-01-15T00:16:22;28.20;;;15.67;;
26656;SDS011;14279;50.010;8.260;2024-01-15T00:18:47;34.50;;;15.07;;
26656;SDS011;14279;50.010;8.260;2024-01-15T00:21:13;30.53;;;15.07;;
26656;SDS011;14279;50.010;8.260;2024-01-15T00:23:41;28.70;;;14.67;;
26656;SDS011;14279;50.010;8.260;2024-01-15T00:26:08;29.20;;;15.33;;
26656;SDS011;14279;50.010;8.260;2024-01-15T00:28:33;24.60;;;13.23;;
26656;SDS011;14279;50.010;8.260;2024-01-15T00:30:58;29.10;;;13.93;;
26656;SDS011;14279;50.010;8.260;2024-01-15T00:33:24;28.80;;;15.80;;
26656;SDS011;14279;50.010;8.260;2024-01-15T00:35:49;24.63;;;15.50;;
26656;SDS011;14279;50.010;8.260;2024-01-15T00:38:14;27.60;;;14.30;;
26656;SDS011;14279;50.010;8.260;2024-01-15T00:40:40;23.53;;;13.87;;
26656;SDS011;14279;50.010;8.260;2024-01-15T00:43:05;28.77;;;14.30;;
26656;SDS011;14279;50.010;8.260;2024-01-15T00:45:32;27.33;;;14.60;;
26656;SDS011;14279;50.010;8.260;2024-01-15T00:47:57;26.23;;;13.80;;
26656;SDS011;14279;50.010;8.260;2024-01-15T00:50:24;26.50;;;14.90;;
26656;SDS011;14279;50.010;8.260;2024-01-15T00:52:50;26.30;;;14.10;;
26656;SDS011;14279;50.010;8.260;2024-01-15T00:55:15;29.53;;;15.73;;
26656;SDS011;14279;50.010;8.260;2024-01-15T00:57:40;26.67;;;14.30;;
26656;SDS011;14279;50.010;8.260;2024-01-15T01:00:06;25.73;;;14.10;;
26656;SDS011;14279;50.010;8.260;2024-01-15T01:02:32;29.50;;;15.83;;
26656;SDS011;14279;50.010;8.260;2024-01-15T01:04:57;29.27;;;14.50;;
26656;SDS011;14279;50.010;8.260;2024-01-15T01:07:23;25.97;;;14.00;;
26656;SDS011;14279;50.010;8.260;2024-01-15T01:09:48;28.53;;;14.00;;
26656;SDS011;14279;50.010;8.260;2024-01-15T01:12:14;27.00;;;13.83;;
26656;SDS011;14279;50.010;8.260;2024-01-15T01:14:39;29.17;;;15.17;;
26656;SDS011;14279;50.010;8.260;2024-01-15T01:17:04;26.67;;;14.27;;
26656;SDS011;14279;50.010;8.260;2024-01-15T01:19:30;25.13;;;13.77;;
26656;SDS011;14279;50.010;8.260;2024-01-15T01:21:55;29.97;;;15.40;;
26656;SDS011;14279;50.010;8.260;2024-01-15T01:24:20;29.40;;;14.83;;
26656;SDS011;14279;50.010;8.260;2024-01-15T01:26:46;27.77;;;14.43;;
26656;SDS011;14279;50.010;8.260;2024-01-15T01:29:11;28.50;;;14.50;;
26656;SDS011;14279;50.010;8.260;2024-01-15T01:31:41;26.93;;;14.60;;
26656;SDS011;14279;50.010;8.260;2024-01-15T01:34:07;25.67;;;14.27;;
26656;SDS011;14279;50.010;8.260;2024-01-15T01:36:33;28.67;;;13.97;;
26656;SDS011;14279;50.010;8.260;2024-01-15T01:38:58;22.87;;;13.27;;
26656;SDS011;14279;50.010;8.260;2024-01-15T01:41:23;26.73;;;13.83;;
26656;SDS011;14279;50.010;8.260;2024-01-15T01:43:49;28.10;;;14.90;;
26656;SDS011;14279;50.010;8.260;2024-01-15T01:46:14;26.97;;;13.20;;
26656;SDS011;14279;50.010;8.260;2024-01-15T01:48:40;25.90;;;14.80;;
26656;SDS011;14279;50.010;8.260;2024-01-15T01:51:05;26.93;;;15.00;;
26656;SDS011;14279;50.010;8.260;2024-01-15T01:53:33;27.63;;;14.60;;
26656;SDS011;14279;50.010;8.260;2024-01-15T01:56:00;25.47;;;13.23;;
26656;SDS011;14279;50.010;8.260;2024-01-15T01:58:26;29.27;;;14.40;;
26656;SDS011;14279;50.010;8.260;2024-01-15T02:00:53;27.43;;;13.40;;
26656;SDS011;14279;50.010;8.260;2024-01-15T02:03:18;25.20;;;13.13;;
26656;SDS011;14279;50.010;8.260;2024-01-15T02:05:44;24.20;;;13.30;;
26656;SDS011;14279;50.010;8.260;2024-01-15T02:08:12;25.90;;;13.17;;
26656;SDS011;14279;50.010;8.260;2024-01-15T02:10:38;25.67;;;13.80;;
26656;SDS011;14279;50.010;8.260;2024-01-15T02:13:03;29.00;;;14.07;;
26656;SDS011;14279;50.010;8.260;2024-01-15T02:15:28;28.53;;;14.67;;
26656;SDS011;14279;50.010;8.260;2024-01-15T02:17:57;26.10;;;14.17;;
26656;SDS011;14279;50.010;8.260;2024-01-15T02:20:23;26.80;;;14.30;;
26656;SDS011;14279;50.010;8.260;2024-01-15T02:22:49;26.03;;;13.50;;
26656;SDS011;14279;50.010;8.260;2024-01-15T02:25:14;25.77;;;13.80;;
26656;SDS011;14279;50.010;8.260;2024-01-15T02:27:39;25.43;;;14.47;;
26656;SDS011;14279;50.010;8.260;2024-01-15T02:30:05;22.90;;;12.30;;
26656;SDS011;14279;50.010;8.260;2024-01-15T02:32:33;23.93;;;13.20;;
26656;SDS011;14279;50.010;8.260;2024-01-15T02:34:58;22.70;;;13.20;;
26656;SDS011;14279;50.010;8.260;2024-01-15T02:37:23;25.10;;;13.17;;
26656;SDS011;14279;50.010;8.260;2024-01-15T02:39:49;26.83;;;13.90;;
26656;SDS011;14279;50.010;8.260;2024-01-15T02:42:14;26.10;;;13.83;;
26656;SDS011;14279;50.010;8.260;2024-01-15T02:44:39;23.47;;;13.03;;
26656;SDS011;14279;50.010;8.260;2024-01-15T02:47:05;21.53;;;12.23;;
26656;SDS011;14279;50.010;8.260;2024-01-15T02:49:30;25.40;;;14.17;;
26656;SDS011;14279;50.010;8.260;2024-01-15T02:51:57;24.87;;;13.67;;
26656;SDS011;14279;50.010;8.260;2024-01-15T02:54:22;27.17;;;13.77;;
26656;SDS011;14279;50.010;8.260;2024-01-15T02:56:48;23.77;;;13.40;;
26656;SDS011;14279;50.010;8.260;2024-01-15T02:59:13;24.70;;;13.43;;
26656;SDS011;14279;50.010;8.260;2024-01-15T03:01:38;22.87;;;12.60;;
26656;SDS011;14279;50.010;8.260;2024-01-15T03:04:03;29.10;;;13.43;;
26656;SDS011;14279;50.010;8.260;2024-01-15T03:06:29;19.40;;;12.03;;
26656;SDS011;14279;50.010;8.260;2024-01-15T03:08:54;22.07;;;11.93;;
26656;SDS011;14279;50.010;8.260;2024-01-15T03:11:19;24.07;;;11.73;;
26656;SDS011;14279;50.010;8.260;2024-01-15T03:13:44;27.47;;;14.10;;
26656;SDS011;14279;50.010;8.260;2024-01-15T03:16:10;20.37;;;12.87;;
26656;SDS011;14279;50.010;8.260;2024-01-15T03:18:35;29.50;;;12.10;;
26656;SDS011;14279;50.010;8.260;2024-01-15T03:21:00;23.23;;;12.60;;
26656;SDS011;14279;50.010;8.260;2024-01-15T03:23:28;21.43;;;12.20;;
26656;SDS011;14279;50.010;8.260;2024-01-15T03:25:54;23.20;;;14.00;;
26656;SDS011;14279;50.010;8.260;2024-01-15T03:28:19;24.60;;;13.43;;
26656;SDS011;14279;50.010;8.260;2024-01-15T03:30:45;22.20;;;12.90;;
26656;SDS011;14279;50.010;8.260;2024-01-15T03:33:10;27.37;;;13.10;;
26656;SDS011;14279;50.010;8.260;2024-01-15T03:35:35;24.00;;;11.67;;
26656;SDS011;14279;50.010;8.260;2024-01-15T03:38:00;27.63;;;12.10;;
26656;SDS011;14279;50.010;8.260;2024-01-15T03:40:26;26.70;;;12.73;;
26656;SDS011;14279;50.010;8.260;2024-01-15T03:42:51;21.20;;;11.70;;
26656;SDS011;14279;50.010;8.260;2024-01-15T03:45:16;25.30;;;12.00;;
26656;SDS011;14279;50.010;8.260;2024-01-15T03:47:41;23.83;;;13.00;;
26656;SDS011;14279;50.010;8.260;2024-01-15T03:50:07;24.90;;;13.67;;
26656;SDS011;14279;50.010;8.260;2024-01-15T03:52:32;25.47;;;12.90;;
26656;SDS011;14279;50.010;8.260;2024-01-15T03:54:57;22.50;;;11.90;;
26656;SDS011;14279;50.010;8.260;2024-01-15T03:57:23;23.17;;;12.27;;
26656;SDS011;14279;50.010;8.260;2024-01-15T03:59:48;22.90;;;13.30;;
26656;SDS011;14279;50.010;8.260;2024-01-15T04:02:13;24.63;;;13.80;;
26656;SDS011;14279;50.010;8.260;2024-01-15T04:04:42;27.03;;;13.17;;
26656;SDS011;14279;50.010;8.260;2024-01-15T04:07:11;29.60;;;13.10;;
26656;SDS011;14279;50.010;8.260;2024-01-15T04:09:36;23.10;;;13.10;;
26656;SDS011;14279;50.010;8.260;2024-01-15T04:12:01;24.90;;;13.57;;
26656;SDS011;14279;50.010;8.260;2024-01-15T04:14:27;24.07;;;12.30;;
26656;SDS011;14279;50.010;8.260;2024-01-15T04:16:53;24.77;;;12.20;;
26656;SDS011;14279;50.010;8.260;2024-01-15T04:19:18;23.03;;;11.77;;
26656;SDS011;14279;50.010;8.260;2024-01-15T04:21:44;27.90;;;13.10;;
26656;SDS011;14279;50.010;8.260;2024-01-15T04:24:09;23.63;;;11.83;;
26656;SDS011;14279;50.010;8.260;2024-01-15T04:26:34;25.00;;;12.90;;
26656;SDS011;14279;50.010;8.260;2024-01-15T04:28:59;23.23;;;12.93;;
26656;SDS011;14279;50.010;8.260;2024-01-15T04:31:25;24.33;;;12.87;;
26656;SDS011;14279;50.010;8.260;2024-01-15T04:33:52;26.13;;;14.00;;
26656;SDS011;14279;50.010;8.260;2024-01-15T04:36:17;24.10;;;12.90;;
26656;SDS011;14279;50.010;8.260;2024-01-15T04:38:42;21.70;;;13.00;;
26656;SDS011;14279;50.010;8.260;2024-01-15T04:41:26;23.00;;;11.90;;
26656;SDS011;14279;50.010;8.260;2024-01-15T04:43:51;24.90;;;12.37;;
26656;SDS011;14279;50.010;8.260;2024-01-15T04:46:17;24.33;;;13.40;;
26656;SDS011;14279;50.010;8.260;2024-01-15T04:48:42;22.00;;;12.30;;
26656;SDS011;14279;50.010;8.260;2024-01-15T04:51:08;27.40;;;13.03;;
26656;SDS011;14279;50.010;8.260;2024-01-15T04:53:34;21.80;;;12.33;;
26656;SDS011;14279;50.010;8.260;2024-01-15T04:55:59;24.97;;;14.07;;
26656;SDS011;14279;50.010;8.260;2024-01-15T04:58:25;26.20;;;13.50;;
26656;SDS011;14279;50.010;8.260;2024-01-15T05:00:52;24.40;;;12.43;;
26656;SDS011;14279;50.010;8.260;2024-01-15T05:03:17;21.10;;;13.40;;
26656;SDS011;14279;50.010;8.260;2024-01-15T05:05:43;22.13;;;13.40;;
26656;SDS011;14279;50.010;8.260;2024-01-15T05:08:08;25.10;;;14.03;;
26656;SDS011;14279;50.010;8.260;2024-01-15T05:10:33;29.57;;;14.10;;
26656;SDS011;14279;50.010;8.260;2024-01-15T05:12:58;27.53;;;13.67;;
26656;SDS011;14279;50.010;8.260;2024-01-15T05:15:24;25.90;;;14.10;;
26656;SDS011;14279;50.010;8.260;2024-01-15T05:17:49;25.47;;;13.80;;
26656;SDS011;14279;50.010;8.260;2024-01-15T05:20:14;26.50;;;13.63;;
26656;SDS011;14279;50.010;8.260;2024-01-15T05:22:39;29.90;;;13.87;;
26656;SDS011;14279;50.010;8.260;2024-01-15T05:25:05;29.83;;;14.27;;
26656;SDS011;14279;50.010;8.260;2024-01-15T05:27:30;25.10;;;13.60;;
26656;SDS011;14279;50.010;8.260;2024-01-15T05:29:56;21.30;;;13.27;;
26656;SDS011;14279;50.010;8.260;2024-01-15T05:32:21;25.93;;;14.00;;
26656;SDS011;14279;50.010;8.260;2024-01-15T05:34:46;33.60;;;15.77;;
26656;SDS011;14279;50.010;8.260;2024-01-15T05:37:11;28.83;;;15.37;;
26656;SDS011;14279;50.010;8.260;2024-01-15T05:39:37;26.73;;;15.03;;
26656;SDS011;14279;50.010;8.260;2024-01-15T05:42:02;28.27;;;14.50;;
26656;SDS011;14279;50.010;8.260;2024-01-15T05:44:28;23.67;;;13.33;;
26656;SDS011;14279;50.010;8.260;2024-01-15T05:46:53;24.63;;;14.20;;
26656;SDS011;14279;50.010;8.260;2024-01-15T05:49:19;33.87;;;13.73;;
26656;SDS011;14279;50.010;8.260;2024-01-15T05:51:44;33.13;;;14.53;;
26656;SDS011;14279;50.010;8.260;2024-01-15T05:54:09;24.13;;;14.23;;
26656;SDS011;14279;50.010;8.260;2024-01-15T05:56:34;27.77;;;14.77;;
26656;SDS011;14279;50.010;8.260;2024-01-15T05:59:00;23.30;;;13.83;;
26656;SDS011;14279;50.010;8.260;2024-01-15T06:01:25;24.67;;;13.83;;
26656;SDS011;14279;50.010;8.260;2024-01-15T06:03:51;21.47;;;13.20;;
26656;SDS011;14279;50.010;8.260;2024-01-15T06:06:17;26.90;;;13.13;;
26656;SDS011;14279;50.010;8.260;2024-01-15T06:08:42;22.50;;;12.77;;
26656;SDS011;14279;50.010;8.260;2024-01-15T06:11:08;22.60;;;12.77;;
26656;SDS011;14279;50.010;8.260;2024-01-15T06:13:33;28.13;;;13.13;;
26656;SDS011;14279;50.010;8.260;2024-01-15T06:15:58;24.10;;;13.40;;
26656;SDS011;14279;50.010;8.260;2024-01-15T06:18:23;22.57;;;12.70;;
26656;SDS011;14279;50.010;8.260;2024-01-15T06:20:49;25.90;;;13.60;;
26656;SDS011;14279;50.010;8.260;2024-01-15T06:23:14;25.87;;;13.30;;
26656;SDS011;14279;50.010;8.260;2024-01-15T06:25:39;22.97;;;13.70;;
26656;SDS011;14279;50.010;8.260;2024-01-15T06:28:04;28.23;;;14.53;;
26656;SDS011;14279;50.010;8.260;2024-01-15T06:30:30;31.10;;;14.77;;
26656;SDS011;14279;50.010;8.260;2024-01-15T06:32:55;23.63;;;12.87;;
26656;SDS011;14279;50.010;8.260;2024-01-15T06:35:20;26.00;;;14.00;;
26656;SDS011;14279;50.010;8.260;2024-01-15T06:37:46;26.80;;;13.70;;
26656;SDS011;14279;50.010;8.260;2024-01-15T06:40:11;24.60;;;14.13;;
26656;SDS011;14279;50.010;8.260;2024-01-15T06:42:36;27.00;;;13.53;;
26656;SDS011;14279;50.010;8.260;2024-01-15T06:45:01;26.23;;;14.03;;
26656;SDS011;14279;50.010;8.260;2024-01-15T06:47:27;27.77;;;13.53;;
26656;SDS011;14279;50.010;8.260;2024-01-15T06:49:52;26.50;;;15.07;;
26656;SDS011;14279;50.010;8.260;2024-01-15T06:52:18;26.10;;;14.60;;
26656;SDS011;14279;50.010;8.260;2024-01-15T06:54:43;27.23;;;14.37;;
26656;SDS011;14279;50.010;8.260;2024-01-15T06:57:08;25.20;;;14.53;;
26656;SDS011;14279;50.010;8.260;2024-01-15T06:59:34;24.27;;;13.90;;
26656;SDS011;14279;50.010;8.260;2024-01-15T07:02:00;29.90;;;15.20;;
26656;SDS011;14279;50.010;8.260;2024-01-15T07:04:26;24.73;;;13.10;;
26656;SDS011;14279;50.010;8.260;2024-01-15T07:06:51;21.10;;;13.30;;
26656;SDS011;14279;50.010;8.260;2024-01-15T07:09:16;22.97;;;12.97;;
26656;SDS011;14279;50.010;8.260;2024-01-15T07:11:45;26.53;;;14.97;;
26656;SDS011;14279;50.010;8.260;2024-01-15T07:14:11;26.17;;;13.80;;
26656;SDS011;14279;50.010;8.260;2024-01-15T07:16:37;23.30;;;13.20;;
26656;SDS011;14279;50.010;8.260;2024-01-15T07:19:02;25.00;;;13.50;;
26656;SDS011;14279;50.010;8.260;2024-01-15T07:21:27;27.30;;;13.73;;
26656;SDS011;14279;50.010;8.260;2024-01-15T07:23:52;22.50;;;13.07;;
26656;SDS011;14279;50.010;8.260;2024-01-15T07:26:18;22.90;;;13.27;;
26656;SDS011;14279;50.010;8.260;2024-01-15T07:28:43;24.90;;;13.80;;
26656;SDS011;14279;50.010;8.260;2024-01-15T07:31:08;24.83;;;13.73;;
26656;SDS011;14279;50.010;8.260;2024-01-15T07:33:34;27.80;;;13.90;;
26656;SDS011;14279;50.010;8.260;2024-01-15T07:35:59;24.30;;;13.90;;
26656;SDS011;14279;50.010;8.260;2024-01-15T07:38:24;26.53;;;13.53;;
26656;SDS011;14279;50.010;8.260;2024-01-15T07:40:49;25.97;;;14.10;;
26656;SDS011;14279;50.010;8.260;2024-01-15T07:43:15;26.00;;;14.10;;
26656;SDS011;14279;50.010;8.260;2024-01-15T07:45:40;27.30;;;14.83;;
26656;SDS011;14279;50.010;8.260;2024-01-15T07:48:06;27.90;;;15.37;;
26656;SDS011;14279;50.010;8.260;2024-01-15T07:50:31;26.10;;;13.70;;
26656;SDS011;14279;50.010;8.260;2024-01-15T07:52:56;26.80;;;13.00;;
26656;SDS011;14279;50.010;8.260;2024-01-15T07:55:22;27.10;;;14.50;;
26656;SDS011;14279;50.010;8.260;2024-01-15T07:57:47;26.80;;;15.40;;
26656;SDS011;14279;50.010;8.260;2024-01-15T08:00:13;27.83;;;14.20;;
26656;SDS011;14279;50.010;8.260;2024-01-15T08:02:38;29.40;;;14.13;;
26656;SDS011;14279;50.010;8.260;2024-01-15T08:05:04;26.17;;;13.47;;
26656;SDS011;14279;50.010;8.260;2024-01-15T08:07:29;26.00;;;14.37;;
26656;SDS011;14279;50.010;8.260;2024-01-15T08:09:54;28.67;;;13.00;;
26656;SDS011;14279;50.010;8.260;2024-01-15T08:12:20;27.17;;;13.50;;
26656;SDS011;14279;50.010;8.260;2024-01-15T08:14:45;23.73;;;13.30;;
26656;SDS011;14279;50.010;8.260;2024-01-15T08:17:10;23.53;;;12.80;;
26656;SDS011;14279;50.010;8.260;2024-01-15T08:19:36;27.77;;;13.50;;
26656;SDS011;14279;50.010;8.260;2024-01-15T08:22:01;28.30;;;14.33;;
26656;SDS011;14279;50.010;8.260;2024-01-15T08:24:27;24.37;;;13.80;;
26656;SDS011;14279;50.010;8.260;2024-01-15T08:26:53;25.30;;;13.10;;
26656;SDS011;14279;50.010;8.260;2024-01-15T08:29:18;27.83;;;14.47;;
26656;SDS011;14279;50.010;8.260;2024-01-15T08:31:46;21.60;;;13.10;;
26656;SDS011;14279;50.010;8.260;2024-01-15T08:34:11;30.40;;;14.47;;
26656;SDS011;14279;50.010;8.260;2024-01-15T08:36:36;23.30;;;13.43;;
26656;SDS011;14279;50.010;8.260;2024-01-15T08:39:02;19.27;;;10.83;;
26656;SDS011;14279;50.010;8.260;2024-01-15T08:41:29;24.17;;;13.00;;
26656;SDS011;14279;50.010;8.260;2024-01-15T08:43:55;21.90;;;12.60;;
26656;SDS011;14279;50.010;8.260;2024-01-15T08:46:20;22.63;;;13.43;;
26656;SDS011;14279;50.010;8.260;2024-01-15T08:48:45;23.03;;;12.23;;
26656;SDS011;14279;50.010;8.260;2024-01-15T08:51:11;21.47;;;12.40;;
26656;SDS011;14279;50.010;8.260;2024-01-15T08:53:36;21.77;;;12.80;;
26656;SDS011;14279;50.010;8.260;2024-01-15T08:56:01;23.93;;;13.30;;
26656;SDS011;14279;50.010;8.260;2024-01-15T08:58:27;20.40;;;11.23;;
26656;SDS011;14279;50.010;8.260;2024-01-15T09:00:52;20.87;;;12.10;;
26656;SDS011;14279;50.010;8.260;2024-01-15T09:03:17;19.70;;;12.60;;
26656;SDS011;14279;50.010;8.260;2024-01-15T09:05:43;20.60;;;12.00;;
26656;SDS011;14279;50.010;8.260;2024-01-15T09:08:08;21.50;;;12.10;;
26656;SDS011;14279;50.010;8.260;2024-01-15T09:10:34;22.67;;;13.20;;
26656;SDS011;14279;50.010;8.260;2024-01-15T09:12:59;24.47;;;13.37;;
26656;SDS011;14279;50.010;8.260;2024-01-15T09:15:25;27.17;;;13.67;;
26656;SDS011;14279;50.010;8.260;2024-01-15T09:17:50;22.07;;;12.10;;
26656;SDS011;14279;50.010;8.260;2024-01-15T09:20:16;20.73;;;12.03;;
26656;SDS011;14279;50.010;8.260;2024-01-15T09:22:41;18.53;;;10.63;;
26656;SDS011;14279;50.010;8.260;2024-01-15T09:25:07;19.23;;;11.40;;
26656;SDS011;14279;50.010;8.260;2024-01-15T09:27:34;18.27;;;11.33;;
26656;SDS011;14279;50.010;8.260;2024-01-15T09:30:00;24.93;;;13.10;;
26656;SDS011;14279;50.010;8.260;2024-01-15T09:32:25;22.03;;;11.93;;
26656;SDS011;14279;50.010;8.260;2024-01-15T09:34:50;20.17;;;11.30;;
26656;SDS011;14279;50.010;8.260;2024-01-15T09:37:16;21.77;;;11.63;;
26656;SDS011;14279;50.010;8.260;2024-01-15T09:39:41;20.80;;;11.77;;
26656;SDS011;14279;50.010;8.260;2024-01-15T09:42:06;20.50;;;12.33;;
26656;SDS011;14279;50.010;8.260;2024-01-15T09:44:32;18.57;;;11.27;;
26656;SDS011;14279;50.010;8.260;2024-01-15T09:46:58;22.80;;;11.57;;
26656;SDS011;14279;50.010;8.260;2024-01-15T09:49:23;17.10;;;10.63;;
26656;SDS011;14279;50.010;8.260;2024-01-15T09:51:49;20.23;;;11.80;;
26656;SDS011;14279;50.010;8.260;2024-01-15T09:54:15;20.60;;;11.83;;
26656;SDS011;14279;50.010;8.260;2024-01-15T09:56:42;20.27;;;11.17;;
26656;SDS011;14279;50.010;8.260;2024-01-15T09:59:10;23.67;;;11.80;;
26656;SDS011;14279;50.010;8.260;2024-01-15T10:01:36;17.10;;;10.10;;
26656;SDS011;14279;50.010;8.260;2024-01-15T10:04:04;16.87;;;9.97;;
26656;SDS011;14279;50.010;8.260;2024-01-15T10:06:30;17.27;;;10.00;;
26656;SDS011;14279;50.010;8.260;2024-01-15T10:08:56;18.10;;;10.90;;
26656;SDS011;14279;50.010;8.260;2024-01-15T10:11:23;20.37;;;9.90;;
26656;SDS011;14279;50.010;8.260;2024-01-15T10:13:48;18.70;;;11.17;;
26656;SDS011;14279;50.010;8.260;2024-01-15T10:16:21;15.77;;;10.03;;
26656;SDS011;14279;50.010;8.260;2024-01-15T10:18:47;18.87;;;11.50;;
26656;SDS011;14279;50.010;8.260;2024-01-15T10:21:12;18.13;;;10.23;;
26656;SDS011;14279;50.010;8.260;2024-01-15T10:23:39;16.97;;;10.43;;
26656;SDS011;14279;50.010;8.260;2024-01-15T10:26:04;17.73;;;11.73;;
26656;SDS011;14279;50.010;8.260;2024-01-15T10:28:29;18.40;;;10.97;;
26656;SDS011;14279;50.010;8.260;2024-01-15T10:30:56;17.03;;;10.70;;
26656;SDS011;14279;50.010;8.260;2024-01-15T10:33:24;16.30;;;11.30;;
26656;SDS011;14279;50.010;8.260;2024-01-15T10:35:50;19.43;;;11.53;;
26656;SDS011;14279;50.010;8.260;2024-01-15T10:38:18;22.70;;;11.60;;
26656;SDS011;14279;50.010;8.260;2024-01-15T10:40:47;21.57;;;11.83;;
26656;SDS011;14279;50.010;8.260;2024-01-15T10:43:16;16.77;;;10.77;;
26656;SDS011;14279;50.010;8.260;2024-01-15T10:45:42;17.30;;;11.40;;
26656;SDS011;14279;50.010;8.260;2024-01-15T10:48:09;19.53;;;12.13;;
26656;SDS011;14279;50.010;8.260;2024-01-15T10:50:35;20.80;;;11.23;;
26656;SDS011;14279;50.010;8.260;2024-01-15T10:53:01;18.80;;;10.63;;
26656;SDS011;14279;50.010;8.260;2024-01-15T10:55:27;17.30;;;10.33;;
26656;SDS011;14279;50.010;8.260;2024-01-15T10:57:53;16.57;;;10.27;;
26656;SDS011;14279;50.010;8.260;2024-01-15T11:00:21;19.20;;;11.50;;
26656;SDS011;14279;50.010;8.260;2024-01-15T11:02:46;17.73;;;10.77;;
26656;SDS011;14279;50.010;8.260;2024-01-15T11:05:12;17.27;;;10.67;;
26656;SDS011;14279;50.010;8.260;2024-01-15T11:07:38;17.60;;;11.17;;
26656;SDS011;14279;50.010;8.260;2024-01-15T11:10:05;16.80;;;10.40;;
26656;SDS011;14279;50.010;8.260;2024-01-15T11:12:30;17.67;;;10.80;;
26656;SDS011;14279;50.010;8.260;2024-01-15T11:15:02;15.33;;;10.20;;
26656;SDS011;14279;50.010;8.260;2024-01-15T11:17:57;16.53;;;9.67;;
26656;SDS011;14279;50.010;8.260;2024-01-15T11:20:26;15.97;;;10.37;;
26656;SDS011;14279;50.010;8.260;2024-01-15T11:22:51;18.90;;;11.27;;
26656;SDS011;14279;50.010;8.260;2024-01-15T11:25:19;16.03;;;9.77;;
26656;SDS011;14279;50.010;8.260;2024-01-15T11:27:46;13.27;;;9.37;;
26656;SDS011;14279;50.010;8.260;2024-01-15T11:30:16;16.53;;;9.97;;
26656;SDS011;14279;50.010;8.260;2024-01-15T11:32:42;19.40;;;10.87;;
26656;SDS011;14279;50.010;8.260;2024-01-15T11:35:08;15.70;;;9.20;;
26656;SDS011;14279;50.010;8.260;2024-01-15T11:40:23;16.90;;;9.93;;
26656;SDS011;14279;50.010;8.260;2024-01-15T11:43:03;16.17;;;9.87;;
26656;SDS011;14279;50.010;8.260;2024-01-15T11:45:32;13.50;;;8.83;;
26656;SDS011;14279;50.010;8.260;2024-01-15T11:48:11;13.97;;;8.27;;
26656;SDS011;14279;50.010;8.260;2024-01-15T11:53:16;13.97;;;8.40;;
26656;SDS011;14279;50.010;8.260;2024-01-15T11:55:46;12.43;;;8.57;;
26656;SDS011;14279;50.010;8.260;2024-01-15T11:58:13;12.47;;;7.90;;
26656;SDS011;14279;50.010;8.260;2024-01-15T12:00:39;12.70;;;8.67;;
26656;SDS011;14279;50.010;8.260;2024-01-15T12:03:06;11.77;;;8.40;;
26656;SDS011;14279;50.010;8.260;2024-01-15T12:05:32;13.43;;;8.30;;
26656;SDS011;14279;50.010;8.260;2024-01-15T12:07:57;15.17;;;8.80;;
26656;SDS011;14279;50.010;8.260;2024-01-15T12:10:22;13.07;;;8.60;;
26656;SDS011;14279;50.010;8.260;2024-01-15T12:15:37;11.23;;;8.20;;
26656;SDS011;14279;50.010;8.260;2024-01-15T12:18:06;11.30;;;8.00;;
26656;SDS011;14279;50.010;8.260;2024-01-15T12:20:33;11.70;;;8.10;;
26656;SDS011;14279;50.010;8.260;2024-01-15T12:22:59;13.67;;;8.10;;
26656;SDS011;14279;50.010;8.260;2024-01-15T12:25:24;11.07;;;7.50;;
26656;SDS011;14279;50.010;8.260;2024-01-15T12:27:52;12.30;;;8.40;;
26656;SDS011;14279;50.010;8.260;2024-01-15T12:30:17;11.60;;;7.50;;
26656;SDS011;14279;50.010;8.260;2024-01-15T12:32:43;13.03;;;8.67;;
26656;SDS011;14279;50.010;8.260;2024-01-15T12:35:10;11.83;;;7.33;;
26656;SDS011;14279;50.010;8.260;2024-01-15T12:37:36;11.40;;;7.40;;
26656;SDS011;14279;50.010;8.260;2024-01-15T12:40:09;13.13;;;8.33;;
26656;SDS011;14279;50.010;8.260;2024-01-15T12:42:41;12.17;;;7.97;;
26656;SDS011;14279;50.010;8.260;2024-01-15T12:45:07;16.20;;;7.97;;
26656;SDS011;14279;50.010;8.260;2024-01-15T12:47:34;15.40;;;7.50;;
26656;SDS011;14279;50.010;8.260;2024-01-15T12:50:00;12.00;;;7.67;;
26656;SDS011;14279;50.010;8.260;2024-01-15T12:52:26;10.70;;;7.23;;
26656;SDS011;14279;50.010;8.260;2024-01-15T12:54:52;14.17;;;8.40;;
26656;SDS011;14279;50.010;8.260;2024-01-15T12:57:18;14.00;;;7.60;;
26656;SDS011;14279;50.010;8.260;2024-01-15T12:59:44;12.90;;;8.40;;
26656;SDS011;14279;50.010;8.260;2024-01-15T13:02:10;13.20;;;6.80;;
26656;SDS011;14279;50.010;8.260;2024-01-15T13:04:39;10.40;;;7.60;;
26656;SDS011;14279;50.010;8.260;2024-01-15T13:07:08;9.50;;;6.30;;
26656;SDS011;14279;50.010;8.260;2024-01-15T13:09:34;14.30;;;7.47;;
26656;SDS011;14279;50.010;8.260;2024-01-15T13:12:00;13.10;;;7.00;;
26656;SDS011;14279;50.010;8.260;2024-01-15T13:14:26;12.77;;;7.20;;
26656;SDS011;14279;50.010;8.260;2024-01-15T13:16:52;12.50;;;7.70;;
26656;SDS011;14279;50.010;8.260;2024-01-15T13:19:18;12.17;;;7.37;;
26656;SDS011;14279;50.010;8.260;2024-01-15T13:21:44;11.43;;;6.03;;
26656;SDS011;14279;50.010;8.260;2024-01-15T13:24:09;13.00;;;7.70;;
26656;SDS011;14279;50.010;8.260;2024-01-15T13:26:35;13.33;;;7.50;;
26656;SDS011;14279;50.010;8.260;2024-01-15T13:29:03;8.17;;;6.23;;
26656;SDS011;14279;50.010;8.260;2024-01-15T13:31:29;14.47;;;6.93;;
26656;SDS011;14279;50.010;8.260;2024-01-15T13:33:58;14.17;;;6.20;;
26656;SDS011;14279;50.010;8.260;2024-01-15T13:36:24;9.77;;;6.47;;
26656;SDS011;14279;50.010;8.260;2024-01-15T13:38:50;11.30;;;6.33;;
26656;SDS011;14279;50.010;8.260;2024-01-15T13:41:17;14.03;;;6.67;;
26656;SDS011;14279;50.010;8.260;2024-01-15T13:43:45;10.07;;;6.70;;
26656;SDS011;14279;50.010;8.260;2024-01-15T13:46:14;9.83;;;6.30;;
26656;SDS011;14279;50.010;8.260;2024-01-15T13:48:39;13.03;;;7.10;;
26656;SDS011;14279;50.010;8.260;2024-01-15T13:51:04;9.10;;;6.00;;
26656;SDS011;14279;50.010;8.260;2024-01-15T13:53:30;9.90;;;5.93;;
26656;SDS011;14279;50.010;8.260;2024-01-15T13:55:55;8.03;;;5.80;;
26656;SDS011;14279;50.010;8.260;2024-01-15T13:58:20;9.27;;;6.00;;
26656;SDS011;14279;50.010;8.260;2024-01-15T14:00:52;7.40;;;5.87;;
26656;SDS011;14279;50.010;8.260;2024-01-15T14:03:21;12.83;;;7.10;;
26656;SDS011;14279;50.010;8.260;2024-01-15T14:05:50;12.03;;;6.17;;
26656;SDS011;14279;50.010;8.260;2024-01-15T14:08:16;8.17;;;5.60;;
26656;SDS011;14279;50.010;8.260;2024-01-15T14:10:45;11.70;;;6.07;;
26656;SDS011;14279;50.010;8.260;2024-01-15T14:13:10;10.47;;;6.77;;
26656;SDS011;14279;50.010;8.260;2024-01-15T14:15:35;7.57;;;5.50;;
26656;SDS011;14279;50.010;8.260;2024-01-15T14:18:01;7.80;;;4.77;;
26656;SDS011;14279;50.010;8.260;2024-01-15T14:20:27;9.33;;;5.50;;
26656;SDS011;14279;50.010;8.260;2024-01-15T14:22:52;5.37;;;4.23;;
26656;SDS011;14279;50.010;8.260;2024-01-15T14:25:19;8.27;;;5.07;;
26656;SDS011;14279;50.010;8.260;2024-01-15T14:27:44;10.33;;;5.63;;